Time;durP1;ratioP1;P1;durP2;ratioP2;P2;SDS_P1;SDS_P2;PMS_P1;PMS_P2;Temp;Humidity;BMP_temperature;BMP_pressure;BME280_temperature;BME280_humidity;BME280_pressure;Samples;Min_cycle;Max_cycle;Signal;HPM_P1;HPM_P2
2023/07/21 00:01:41;;;;;;;4.15;3.75;;;;;;;23.93;75.95;94484.06;5092740;28;20212;-43
2023/07/21 00:04:08;;;;;;;9.52;4.30;;;;;;;23.87;75.88;94479.72;5110481;28;20200;-42
2023/07/21 00:06:34;;;;;;;8.02;4.10;;;;;;;23.87;75.49;94474.50;5110317;28;20193;-44
2023/07/21 00:09:02;;;;;;;6.57;4.10;;;;;;;23.87;75.38;94468.47;5110505;28;20197;-44
2023/07/21 00:11:32;;;;;;;6.35;4.00;;;;;;;23.89;76.18;94471.69;5110375;28;20188;-44
2023/07/21 00:13:58;;;;;;;8.07;3.92;;;;;;;23.88;76.07;94468.28;5110156;28;20699;-44
2023/07/21 00:16:27;;;;;;;5.43;3.35;;;;;;;23.87;75.27;94471.09;5110020;28;20199;-45
2023/07/21 00:18:55;;;;;;;4.90;3.85;;;;;;;23.82;75.00;94469.16;5110073;28;20193;-43
2023/07/21 00:21:22;;;;;;;5.50;4.00;;;;;;;23.83;74.34;94469.94;5109901;28;20196;-44
2023/07/21 00:23:49;;;;;;;10.35;3.95;;;;;;;23.78;74.11;94468.00;5110056;28;20189;-44
2023/07/21 00:26:16;;;;;;;3.83;3.42;;;;;;;23.75;74.02;94461.44;5109872;28;20193;-45
2023/07/21 00:28:43;;;;;;;7.03;4.15;;;;;;;23.67;74.22;94453.13;5109961;28;20217;-43
2023/07/21 00:31:10;;;;;;;8.80;3.63;;;;;;;23.63;74.20;94452.75;5110051;28;20196;-43
2023/07/21 00:33:37;;;;;;;4.45;3.45;;;;;;;23.62;74.14;94458.19;5110013;28;20231;-44
2023/07/21 00:36:06;;;;;;;4.22;3.20;;;;;;;23.61;73.85;94460.00;5109802;28;20197;-45
2023/07/21 00:38:33;;;;;;;5.43;3.13;;;;;;;23.58;73.93;94459.69;5109694;28;20197;-45
2023/07/21 00:41:00;;;;;;;5.43;3.58;;;;;;;23.58;73.93;94457.06;5109763;28;20193;-44
2023/07/21 00:43:27;;;;;;;4.13;3.72;;;;;;;23.57;73.98;94461.47;5109773;28;20196;-44
2023/07/21 00:45:54;;;;;;;8.57;3.63;;;;;;;23.57;73.67;94465.91;5110114;28;20192;-44
2023/07/21 00:48:21;;;;;;;7.78;3.63;;;;;;;23.51;74.02;94459.75;5109690;28;20197;-44
2023/07/21 00:50:50;;;;;;;6.53;3.70;;;;;;;23.52;73.76;94453.50;5109712;28;20278;-44
2023/07/21 00:53:20;;;;;;;3.65;3.25;;;;;;;23.53;73.45;94455.09;5109559;28;20722;-44
2023/07/21 00:55:47;;;;;;;6.80;3.20;;;;;;;23.54;73.78;94435.81;5109670;28;20258;-45
2023/07/21 00:58:14;;;;;;;3.95;3.00;;;;;;;23.50;73.84;94429.47;5109923;28;20181;-45
2023/07/21 01:00:42;;;;;;;4.60;3.63;;;;;;;23.50;73.63;94429.47;5110081;28;20185;-43
2023/07/21 01:03:10;;;;;;;5.70;3.63;;;;;;;23.48;73.35;94419.22;5109502;28;20626;-43
2023/07/21 01:05:42;;;;;;;6.18;3.72;;;;;;;23.50;73.59;94425.03;5109951;28;20181;-46
2023/07/21 01:08:11;;;;;;;4.93;4.15;;;;;;;23.51;73.55;94428.44;5109613;28;20216;-44
2023/07/21 01:10:41;;;;;;;6.97;3.60;;;;;;;23.49;73.93;94418.22;5109703;28;20613;-43
2023/07/21 01:13:09;;;;;;;3.97;3.53;;;;;;;23.48;73.63;94400.94;5109544;28;20211;-43
2023/07/21 01:15:43;;;;;;;4.35;3.85;;;;;;;23.48;73.81;94403.56;5109817;28;20291;-44
2023/07/21 01:18:12;;;;;;;5.95;3.92;;;;;;;23.46;73.65;94395.19;5109840;28;20188;-44
2023/07/21 01:20:39;;;;;;;4.18;3.75;;;;;;;23.44;73.93;94396.41;5109800;28;20196;-43
2023/07/21 01:23:14;;;;;;;6.13;3.60;;;;;;;23.42;74.21;94390.63;5109089;28;20545;-43
2023/07/21 01:25:43;;;;;;;5.35;3.85;;;;;;;23.40;74.63;94401.31;5109863;28;20192;-44
2023/07/21 01:28:12;;;;;;;7.32;3.35;;;;;;;23.35;74.80;94395.16;5109249;28;20625;-43
2023/07/21 01:30:40;;;;;;;4.03;3.67;;;;;;;23.34;74.59;94394.34;5112877;28;20349;-44
2023/07/21 01:33:08;;;;;;;3.92;3.30;;;;;;;23.33;74.81;94411.03;5109148;28;20638;-43
2023/07/21 01:35:37;;;;;;;3.60;3.20;;;;;;;23.28;74.86;94406.50;5109630;28;20216;-43
2023/07/21 01:38:05;;;;;;;8.27;4.05;;;;;;;23.18;74.45;94408.81;5109317;28;20200;-43
2023/07/21 01:40:32;;;;;;;4.25;3.50;;;;;;;23.25;74.34;94425.19;5109715;28;20200;-42
2023/07/21 01:43:01;;;;;;;3.55;3.25;;;;;;;23.23;73.54;94422.03;5109594;28;20617;-42
2023/07/21 01:45:29;;;;;;;3.85;3.15;;;;;;;23.18;72.83;94429.69;5109435;28;20178;-44
2023/07/21 01:47:56;;;;;;;4.88;3.33;;;;;;;23.19;73.08;94441.75;5109069;28;20262;-42
2023/07/21 01:50:26;;;;;;;3.53;3.22;;;;;;;23.15;72.93;94447.63;5111479;28;20185;-45
2023/07/21 01:52:53;;;;;;;5.10;3.45;;;;;;;23.13;72.94;94442.63;5113252;28;20211;-45
2023/07/21 01:55:24;;;;;;;6.18;3.80;;;;;;;23.15;72.92;94431.97;5113058;28;20209;-42
2023/07/21 01:57:55;;;;;;;5.07;2.92;;;;;;;23.15;72.88;94445.81;5113050;28;20687;-43
2023/07/21 02:00:25;;;;;;;5.43;3.10;;;;;;;23.17;72.70;94448.97;5113103;28;20181;-43
2023/07/21 02:02:53;;;;;;;6.40;3.38;;;;;;;23.19;72.42;94459.22;5112893;28;20609;-43
2023/07/21 02:05:20;;;;;;;3.85;3.30;;;;;;;23.19;72.36;94457.41;5112997;28;20192;-43
2023/07/21 02:07:47;;;;;;;3.72;3.05;;;;;;;23.19;71.98;94454.78;5112817;28;20246;-43
2023/07/21 02:10:14;;;;;;;6.68;3.20;;;;;;;23.17;71.74;94461.25;5112729;28;20572;-44
2023/07/21 02:12:41;;;;;;;4.85;3.58;;;;;;;23.16;72.14;94449.22;5112891;28;20719;-43
2023/07/21 02:15:09;;;;;;;4.03;3.15;;;;;;;23.11;72.04;94441.25;5112733;28;20287;-43
2023/07/21 02:17:37;;;;;;;4.63;2.92;;;;;;;23.11;71.60;94455.09;5112726;28;20196;-44
2023/07/21 02:20:07;;;;;;;4.78;3.33;;;;;;;23.10;71.69;94452.69;5112755;28;20177;-42
2023/07/21 02:22:34;;;;;;;5.00;3.22;;;;;;;23.06;71.37;94447.16;5112695;28;20233;-43
2023/07/21 02:25:00;;;;;;;5.72;3.72;;;;;;;23.01;71.54;94447.81;5112305;28;20193;-45
2023/07/21 02:27:27;;;;;;;6.32;3.78;;;;;;;22.96;71.89;94445.03;5112398;28;20246;-43
2023/07/21 02:29:54;;;;;;;5.25;3.67;;;;;;;22.89;72.12;94441.72;5112042;28;20232;-43
2023/07/21 02:32:21;;;;;;;4.68;3.60;;;;;;;22.99;71.98;94446.44;5112303;28;20250;-43
2023/07/21 02:34:51;;;;;;;6.70;3.90;;;;;;;23.00;72.04;94440.97;5112076;28;20262;-43
2023/07/21 02:37:17;;;;;;;6.50;3.58;;;;;;;23.08;71.78;94449.53;5112276;28;20860;-42
2023/07/21 02:39:44;;;;;;;7.10;3.88;;;;;;;23.08;71.89;94445.09;5112369;28;20213;-49
2023/07/21 02:42:11;;;;;;;6.60;4.00;;;;;;;23.08;71.70;94445.09;5112127;28;20200;-43
2023/07/21 02:44:38;;;;;;;6.38;3.92;;;;;;;23.10;72.75;94448.31;5112274;28;20204;-44
2023/07/21 02:47:05;;;;;;;4.80;4.30;;;;;;;23.04;74.82;94439.53;5111688;28;20246;-44
2023/07/21 02:49:32;;;;;;;7.35;4.40;;;;;;;23.00;76.45;94440.97;5112299;28;20192;-44
2023/07/21 02:52:01;;;;;;;5.47;4.35;;;;;;;23.00;76.81;94442.78;5112162;28;20273;-43
2023/07/21 02:54:27;;;;;;;9.05;4.43;;;;;;;23.01;76.49;94447.81;5111828;28;20220;-45
2023/07/21 02:56:54;;;;;;;5.28;4.60;;;;;;;23.04;76.75;94444.75;5111821;28;20193;-45
2023/07/21 02:59:24;;;;;;;6.38;4.60;;;;;;;22.98;77.00;94439.63;5111829;28;20181;-44
2023/07/21 03:01:54;;;;;;;8.32;4.38;;;;;;;23.06;77.22;94454.97;5111310;28;20193;-44
2023/07/21 03:04:22;;;;;;;6.53;4.38;;;;;;;23.06;77.15;94454.97;5111724;28;20196;-44
2023/07/21 03:06:49;;;;;;;4.75;3.75;;;;;;;23.01;75.32;94457.41;5111684;28;20189;-43
2023/07/21 03:09:17;;;;;;;5.57;3.78;;;;;;;22.95;74.26;94461.72;5111830;28;20281;-44
2023/07/21 03:11:44;;;;;;;5.50;3.65;;;;;;;22.88;74.49;94455.75;5111353;28;20278;-43
2023/07/21 03:14:11;;;;;;;7.07;3.65;;;;;;;22.84;74.32;94465.03;5111520;28;20686;-44
2023/07/21 03:16:38;;;;;;;7.10;4.00;;;;;;;22.66;74.13;94423.31;5111370;28;20561;-44
2023/07/21 03:19:05;;;;;;;6.07;3.58;;;;;;;22.85;73.70;94465.84;5111592;28;20192;-44
2023/07/21 03:21:31;;;;;;;7.65;3.80;;;;;;;22.82;73.64;94466.28;5112500;28;20188;-44
2023/07/21 03:23:58;;;;;;;4.40;3.50;;;;;;;22.76;73.37;94457.53;5111449;28;20568;-44
2023/07/21 03:26:27;;;;;;;5.38;4.03;;;;;;;22.83;73.24;94471.25;5111200;28;20656;-45
2023/07/21 03:28:55;;;;;;;8.00;3.70;;;;;;;22.81;73.58;94469.91;5110985;28;20235;-45
2023/07/21 03:31:22;;;;;;;5.85;3.97;;;;;;;22.74;73.64;94480.38;5111622;28;20204;-43
2023/07/21 03:33:48;;;;;;;4.50;3.80;;;;;;;22.61;74.01;94476.13;5110876;28;20211;-43
2023/07/21 03:36:16;;;;;;;5.28;3.63;;;;;;;22.60;74.35;94478.94;5111100;28;20254;-43
2023/07/21 03:38:43;;;;;;;6.93;4.03;;;;;;;22.57;74.64;94481.97;5111145;28;20553;-43
2023/07/21 03:41:10;;;;;;;9.45;4.35;;;;;;;22.51;74.75;94481.84;5111169;28;20571;-43
2023/07/21 03:43:39;;;;;;;10.20;4.32;;;;;;;22.51;74.68;94479.22;5110892;28;20189;-43
2023/07/21 03:46:07;;;;;;;6.72;4.30;;;;;;;22.50;74.93;94487.28;5111224;28;20200;-45
2023/07/21 03:48:35;;;;;;;5.50;4.40;;;;;;;22.52;75.11;94486.03;5110833;28;20199;-43
2023/07/21 03:51:07;;;;;;;11.55;4.13;;;;;;;22.53;75.14;94487.63;5110912;28;20189;-42
2023/07/21 03:53:33;;;;;;;5.88;4.00;;;;;;;22.54;75.20;94491.84;5110399;28;20188;-43
2023/07/21 03:56:00;;;;;;;5.80;4.07;;;;;;;22.56;74.87;94485.63;5110555;28;20220;-43
2023/07/21 03:58:27;;;;;;;9.02;3.95;;;;;;;22.59;74.58;94493.81;5110608;28;20185;-43
2023/07/21 04:00:58;;;;;;;9.68;3.97;;;;;;;22.67;74.06;94492.72;5111052;28;20188;-44
2023/07/21 04:03:25;;;;;;;5.65;3.83;;;;;;;22.67;73.24;94497.94;5110792;28;20279;-44
2023/07/21 04:05:52;;;;;;;6.22;4.32;;;;;;;22.66;73.28;94502.31;5110383;28;20220;-42
2023/07/21 04:08:19;;;;;;;7.57;3.97;;;;;;;22.61;72.96;94504.78;5110662;28;20311;-43
2023/07/21 04:10:46;;;;;;;7.20;4.05;;;;;;;22.44;72.92;94490.72;5110626;28;20201;-44
2023/07/21 04:13:13;;;;;;;5.65;4.40;;;;;;;22.56;73.27;94514.28;5109638;28;20192;-42
2023/07/21 04:15:40;;;;;;;9.88;3.95;;;;;;;22.58;73.57;94514.84;5110273;28;20254;-43
2023/07/21 04:18:08;;;;;;;6.78;4.05;;;;;;;22.63;73.43;94513.22;5110496;28;20185;-44
2023/07/21 04:20:35;;;;;;;9.73;3.78;;;;;;;22.76;72.86;94510.47;5110156;28;20200;-44
2023/07/21 04:23:02;;;;;;;7.53;4.60;;;;;;;22.83;73.29;94514.78;5110283;28;20189;-45
2023/07/21 04:25:29;;;;;;;6.65;5.00;;;;;;;22.92;73.51;94522.13;5110193;28;20200;-44
2023/07/21 04:27:55;;;;;;;4.90;4.43;;;;;;;23.01;74.07;94528.66;5110417;28;20245;-43
2023/07/21 04:30:23;;;;;;;8.50;5.35;;;;;;;23.08;75.05;94520.75;5109723;28;20743;-43
2023/07/21 04:32:50;;;;;;;8.52;5.40;;;;;;;23.13;75.83;94520.88;5110288;28;20276;-43
2023/07/21 04:35:18;;;;;;;9.10;5.07;;;;;;;23.23;75.77;94512.56;5109638;28;20216;-43
2023/07/21 04:37:45;;;;;;;13.70;5.10;;;;;;;23.31;75.93;94511.44;5110211;28;20234;-45
2023/07/21 04:40:12;;;;;;;12.40;6.30;;;;;;;23.41;75.80;94511.72;5110068;28;20192;-45
2023/07/21 04:42:39;;;;;;;7.82;6.05;;;;;;;23.42;76.95;94505.47;5109894;28;20197;-43
2023/07/21 04:45:11;;;;;;;9.85;5.95;;;;;;;23.51;77.04;94510.16;5110237;28;20279;-43
2023/07/21 04:47:38;;;;;;;10.20;6.53;;;;;;;23.56;77.46;94514.69;5109789;28;20577;-44
2023/07/21 04:50:06;;;;;;;13.90;6.88;;;;;;;23.60;76.84;94515.84;5110050;28;20192;-43
2023/07/21 04:52:36;;;;;;;9.43;5.93;;;;;;;23.66;76.44;94507.19;5109662;28;20192;-43
2023/07/21 04:55:05;;;;;;;10.27;6.40;;;;;;;23.79;76.91;94514.00;5109918;28;20528;-44
2023/07/21 04:57:32;;;;;;;12.93;6.38;;;;;;;23.83;76.93;94506.50;5109836;28;20192;-43
2023/07/21 04:59:59;;;;;;;10.35;6.00;;;;;;;23.92;77.03;94516.44;5109908;28;20192;-43
2023/07/21 05:02:28;;;;;;;15.18;8.02;;;;;;;23.49;77.20;94446.94;5109602;28;20271;-44
2023/07/21 05:04:57;;;;;;;10.90;6.82;;;;;;;23.98;77.13;94514.72;5109753;28;20189;-43
2023/07/21 05:07:24;;;;;;;13.20;6.90;;;;;;;24.00;77.10;94518.69;5109812;28;20193;-43
2023/07/21 05:09:55;;;;;;;11.45;6.40;;;;;;;24.02;77.07;94519.28;5110113;28;20641;-47
2023/07/21 05:12:24;;;;;;;11.20;7.18;;;;;;;24.09;76.82;94524.38;5109960;28;20212;-44
2023/07/21 05:14:50;;;;;;;11.93;7.63;;;;;;;24.20;76.36;94525.44;5111515;28;20715;-42
2023/07/21 05:17:18;;;;;;;13.13;7.53;;;;;;;24.35;76.56;94528.38;5109345;28;20664;-43
2023/07/21 05:19:45;;;;;;;18.20;6.80;;;;;;;24.74;74.99;94528.72;5110097;28;20197;-43
2023/07/21 05:22:12;;;;;;;11.98;6.72;;;;;;;25.09;73.74;94525.31;5109513;28;20623;-43
2023/07/21 05:24:39;;;;;;;10.02;6.60;;;;;;;25.38;72.33;94526.09;5110835;28;20646;-43
2023/07/21 05:27:07;;;;;;;12.25;7.38;;;;;;;25.76;70.82;94530.72;5113796;28;20188;-42
2023/07/21 05:29:34;;;;;;;16.55;6.13;;;;;;;26.18;69.81;94533.81;5113728;28;20306;-44
2023/07/21 05:32:03;;;;;;;15.98;7.35;;;;;;;26.51;67.08;94532.22;5113507;28;20193;-43
2023/07/21 05:34:30;;;;;;;9.88;7.15;;;;;;;26.66;66.55;94529.81;5113506;28;20227;-44
2023/07/21 05:36:57;;;;;;;14.00;6.55;;;;;;;26.93;65.80;94534.34;5113905;28;20284;-44
2023/07/21 05:39:24;;;;;;;7.90;6.32;;;;;;;27.27;64.91;94543.72;5113053;28;20200;-43
2023/07/21 05:41:55;;;;;;;9.23;5.82;;;;;;;27.78;62.92;94525.09;5113409;28;20271;-43
2023/07/21 05:44:24;;;;;;;16.65;6.70;;;;;;;28.16;61.56;94528.59;5112973;28;20272;-43
2023/07/21 05:46:50;;;;;;;8.02;6.15;;;;;;;28.37;61.05;94540.06;5113204;28;20575;-43
2023/07/21 05:49:17;;;;;;;15.02;5.95;;;;;;;28.59;59.20;94546.03;5113206;28;20197;-43
2023/07/21 05:51:44;;;;;;;9.10;6.65;;;;;;;28.64;59.18;94548.69;5113937;28;20177;-43
2023/07/21 05:54:11;;;;;;;17.67;7.78;;;;;;;28.40;59.86;94536.94;5112987;28;20197;-43
2023/07/21 05:56:39;;;;;;;10.68;6.57;;;;;;;28.47;59.79;94546.19;5113364;28;20228;-43
2023/07/21 05:59:06;;;;;;;14.30;6.88;;;;;;;28.81;58.75;94547.72;5112901;28;20387;-44
2023/07/21 06:01:36;;;;;;;10.07;5.82;;;;;;;29.00;58.53;94547.06;5113618;28;20209;-45
2023/07/21 06:04:03;;;;;;;8.60;5.00;;;;;;;29.32;58.10;94542.69;5113186;28;20279;-44
2023/07/21 06:06:31;;;;;;;17.00;5.90;;;;;;;29.76;56.65;94543.13;5113365;28;20235;-45
2023/07/21 06:08:58;;;;;;;6.68;5.25;;;;;;;29.95;55.11;94540.78;5112638;28;20196;-45
2023/07/21 06:11:26;;;;;;;11.45;5.70;;;;;;;29.81;55.26;94548.41;5112860;28;20218;-44
2023/07/21 06:13:53;;;;;;;6.32;5.18;;;;;;;29.72;55.36;94542.06;5112954;28;20615;-43
2023/07/21 06:16:22;;;;;;;9.88;5.65;;;;;;;29.69;55.68;94537.31;5112817;28;20228;-45
2023/07/21 06:18:51;;;;;;;17.65;5.07;;;;;;;29.82;55.61;94533.38;5113308;28;20188;-44
2023/07/21 06:21:19;;;;;;;12.90;5.35;;;;;;;30.07;55.47;94536.03;5112825;28;20196;-45
2023/07/21 06:23:47;;;;;;;12.20;5.70;;;;;;;30.33;54.36;94528.94;5112944;28;20246;-45
2023/07/21 06:26:14;;;;;;;14.07;5.53;;;;;;;30.48;54.27;94528.94;5112693;28;20189;-44
2023/07/21 06:28:41;;;;;;;8.50;5.22;;;;;;;30.71;53.49;94532.84;5112686;28;20196;-46
2023/07/21 06:31:09;;;;;;;10.85;5.63;;;;;;;30.81;52.11;94529.41;5112977;28;20193;-45
2023/07/21 06:33:36;;;;;;;7.88;4.45;;;;;;;30.83;52.35;94522.03;5112894;28;20749;-45
2023/07/21 06:36:04;;;;;;;14.15;5.22;;;;;;;31.15;51.87;94526.94;5111390;28;20270;-44
2023/07/21 06:38:31;;;;;;;7.82;5.05;;;;;;;31.22;51.98;94529.28;5112421;28;20221;-44
2023/07/21 06:40:58;;;;;;;7.63;5.10;;;;;;;31.37;51.09;94525.81;5112234;28;20189;-45
2023/07/21 06:43:25;;;;;;;13.85;5.05;;;;;;;31.33;51.20;94520.25;5112329;28;20217;-44
2023/07/21 06:45:51;;;;;;;9.57;5.10;;;;;;;31.22;51.32;94516.06;5112118;28;20189;-43
2023/07/21 06:48:18;;;;;;;7.90;5.25;;;;;;;31.33;51.37;94527.41;5112608;28;20378;-43
2023/07/21 06:50:45;;;;;;;11.05;4.90;;;;;;;31.38;51.15;94527.38;5112693;28;20181;-44
2023/07/21 06:53:13;;;;;;;7.20;5.38;;;;;;;31.69;50.49;94528.81;5112300;28;20192;-45
2023/07/21 06:55:40;;;;;;;10.90;5.65;;;;;;;32.10;49.24;94530.41;5112169;28;20201;-45
2023/07/21 06:58:08;;;;;;;10.23;4.68;;;;;;;32.14;49.20;94529.56;5111963;28;20185;-44
2023/07/21 07:00:35;;;;;;;8.15;4.45;;;;;;;32.39;48.63;94520.66;5112064;28;20637;-44
2023/07/21 07:03:02;;;;;;;8.27;4.55;;;;;;;32.64;47.65;94527.56;5112129;28;20537;-45
2023/07/21 07:05:30;;;;;;;6.93;4.43;;;;;;;32.91;47.07;94535.00;5112694;28;20250;-43
2023/07/21 07:07:57;;;;;;;7.50;4.50;;;;;;;32.96;46.44;94526.19;5112342;28;20211;-45
2023/07/21 07:10:25;;;;;;;6.22;3.80;;;;;;;33.18;45.41;94526.47;5111627;28;20197;-44
2023/07/21 07:12:52;;;;;;;11.07;5.05;;;;;;;33.12;45.09;94529.47;5111592;28;20189;-44
2023/07/21 07:15:19;;;;;;;7.45;4.60;;;;;;;33.03;45.56;94523.97;5111500;28;20231;-44
2023/07/21 07:17:46;;;;;;;7.57;4.07;;;;;;;33.15;45.80;94520.94;5111923;28;20185;-43
2023/07/21 07:20:12;;;;;;;5.10;4.05;;;;;;;33.47;45.82;94527.47;5111768;28;20192;-44
2023/07/21 07:22:39;;;;;;;7.32;4.40;;;;;;;33.70;45.24;94523.97;5111148;28;20197;-43
2023/07/21 07:25:07;;;;;;;7.35;4.72;;;;;;;33.67;44.44;94525.31;5111333;28;20192;-43
2023/07/21 07:27:35;;;;;;;8.15;4.80;;;;;;;33.76;44.59;94522.03;5111204;28;20203;-44
2023/07/21 07:30:03;;;;;;;7.20;5.20;;;;;;;33.87;43.79;94521.59;5111015;28;20229;-44
2023/07/21 07:32:30;;;;;;;6.25;4.85;;;;;;;33.96;43.68;94521.75;5111562;28;20177;-44
2023/07/21 07:34:58;;;;;;;12.07;4.53;;;;;;;34.01;43.83;94526.19;5111306;28;20272;-44
2023/07/21 07:37:27;;;;;;;6.40;4.65;;;;;;;34.16;43.50;94515.34;5111173;28;20260;-44
2023/07/21 07:39:55;;;;;;;8.27;4.72;;;;;;;34.39;42.57;94518.94;5110870;28;20603;-44
2023/07/21 07:42:23;;;;;;;6.38;4.50;;;;;;;34.52;42.40;94518.22;5110955;28;20559;-45
2023/07/21 07:44:53;;;;;;;7.40;4.28;;;;;;;34.59;42.84;94525.81;5111485;28;20188;-46
2023/07/21 07:47:20;;;;;;;8.55;5.05;;;;;;;34.71;42.38;94518.13;5110873;28;20192;-44
2023/07/21 07:49:47;;;;;;;9.80;4.63;;;;;;;34.53;42.24;94519.78;5111086;28;20313;-44
2023/07/21 07:52:15;;;;;;;5.85;4.70;;;;;;;34.69;42.27;94515.00;5110755;28;20200;-45
2023/07/21 07:54:42;;;;;;;8.30;4.63;;;;;;;34.89;40.67;94519.16;5110613;28;20193;-45
2023/07/21 07:57:08;;;;;;;8.63;4.63;;;;;;;34.94;39.92;94503.88;5110837;28;20213;-43
2023/07/21 07:59:36;;;;;;;5.80;4.53;;;;;;;34.91;39.91;94519.63;5110454;28;20181;-44
2023/07/21 08:02:04;;;;;;;7.22;4.63;;;;;;;34.83;40.57;94515.00;5110962;28;20193;-44
2023/07/21 08:04:31;;;;;;;9.63;5.53;;;;;;;34.88;39.34;94517.56;5110211;28;20185;-44
2023/07/21 08:06:58;;;;;;;12.45;4.90;;;;;;;35.05;39.12;94524.97;5110869;28;20196;-45
2023/07/21 08:09:24;;;;;;;7.97;4.25;;;;;;;35.21;37.93;94520.16;5110420;28;20200;-44
2023/07/21 08:11:51;;;;;;;15.15;5.57;;;;;;;35.20;39.32;94519.38;5110634;28;20652;-44
2023/07/21 08:14:18;;;;;;;10.90;5.15;;;;;;;34.95;39.71;94512.63;5110613;28;20185;-45
2023/07/21 08:16:45;;;;;;;10.35;4.28;;;;;;;34.82;40.05;94513.44;5110257;28;20224;-45
2023/07/21 08:19:13;;;;;;;8.23;4.63;;;;;;;34.87;39.43;94519.44;5110417;28;20223;-43
2023/07/21 08:21:39;;;;;;;10.82;5.03;;;;;;;35.01;38.57;94519.44;5110347;28;20253;-45
2023/07/21 08:24:06;;;;;;;8.25;4.38;;;;;;;34.94;37.74;94522.50;5110665;28;20188;-44
2023/07/21 08:26:33;;;;;;;6.28;4.72;;;;;;;34.75;38.11;94516.47;5109872;28;20185;-44
2023/07/21 08:29:00;;;;;;;8.90;4.55;;;;;;;34.82;38.27;94516.09;5110250;28;20699;-45
2023/07/21 08:31:26;;;;;;;9.60;4.97;;;;;;;34.85;37.83;94512.84;5109813;28;20667;-44
2023/07/21 08:33:54;;;;;;;9.25;4.20;;;;;;;34.88;37.97;94513.03;5110339;28;20549;-43
2023/07/21 08:36:23;;;;;;;10.93;4.70;;;;;;;34.85;37.80;94512.84;5110032;28;20672;-43
2023/07/21 08:38:50;;;;;;;9.25;5.15;;;;;;;34.76;38.65;94512.75;5110174;28;20216;-46
2023/07/21 08:41:20;;;;;;;10.00;4.47;;;;;;;34.79;38.16;94501.50;5109816;28;20218;-43
2023/07/21 08:43:48;;;;;;;8.85;4.97;;;;;;;34.98;37.06;94516.63;5110248;28;20664;-43
2023/07/21 08:46:15;;;;;;;7.60;4.55;;;;;;;35.06;37.30;94511.41;5109946;28;20641;-44
2023/07/21 08:48:42;;;;;;;9.38;4.20;;;;;;;35.07;37.52;94510.31;5109852;28;20211;-44
2023/07/21 08:51:09;;;;;;;6.25;4.30;;;;;;;35.16;37.72;94513.84;5110216;28;20188;-44
2023/07/21 08:53:38;;;;;;;12.65;4.75;;;;;;;35.04;37.83;94518.88;5109308;28;20200;-44
2023/07/21 08:56:05;;;;;;;7.88;4.28;;;;;;;34.92;38.46;94518.53;5109987;28;20308;-44
2023/07/21 08:58:32;;;;;;;6.10;4.15;;;;;;;34.83;37.85;94494.53;5111156;28;20929;-43
2023/07/21 09:00:59;;;;;;;7.70;4.32;;;;;;;35.08;37.65;94508.44;5116545;28;20184;-43
2023/07/21 09:03:27;;;;;;;8.57;4.85;;;;;;;35.21;37.33;94504.97;5116572;28;20192;-43
2023/07/21 09:05:56;;;;;;;9.95;4.90;;;;;;;35.31;36.99;94510.06;5116954;28;20185;-45
2023/07/21 09:08:23;;;;;;;7.55;4.90;;;;;;;35.21;37.62;94506.84;5116257;28;20195;-44
2023/07/21 09:10:51;;;;;;;6.63;4.80;;;;;;;35.28;37.60;94515.19;5116700;28;20203;-45
2023/07/21 09:13:19;;;;;;;10.95;5.10;;;;;;;35.28;37.78;94510.69;5116562;28;20184;-44
2023/07/21 09:15:54;;;;;;;8.25;5.38;;;;;;;35.26;37.28;94514.72;5116864;28;20611;-43
2023/07/21 09:18:25;;;;;;;8.20;4.53;;;;;;;35.20;37.47;94506.06;5116579;28;20562;-43
2023/07/21 09:20:52;;;;;;;8.48;4.55;;;;;;;35.24;37.63;94501.72;5116675;28;20208;-44
2023/07/21 09:23:20;;;;;;;10.55;5.13;;;;;;;35.21;37.74;94497.00;5116301;28;20576;-44
2023/07/21 09:25:53;;;;;;;6.32;5.43;;;;;;;35.13;37.92;94505.66;5116926;28;20192;-45
2023/07/21 09:28:20;;;;;;;7.05;4.63;;;;;;;34.98;37.92;94501.47;5116215;28;20295;-44
2023/07/21 09:30:51;;;;;;;8.15;4.53;;;;;;;34.89;38.47;94496.00;5116572;28;20263;-44
2023/07/21 09:33:23;;;;;;;11.98;5.05;;;;;;;34.92;38.22;94486.66;5116126;28;20235;-44
2023/07/21 09:35:50;;;;;;;9.25;4.55;;;;;;;34.83;38.05;94491.06;5116618;28;20552;-44
2023/07/21 09:38:17;;;;;;;8.07;4.80;;;;;;;34.67;37.79;94464.00;5116046;28;20275;-44
2023/07/21 09:40:44;;;;;;;11.50;4.93;;;;;;;34.77;38.17;94487.75;5116413;28;20549;-44
2023/07/21 09:43:15;;;;;;;4.88;4.43;;;;;;;34.76;38.24;94485.34;5116687;28;20238;-44
2023/07/21 09:45:42;;;;;;;8.70;4.97;;;;;;;34.78;38.06;94478.69;5116594;28;20288;-44
2023/07/21 09:48:11;;;;;;;9.10;5.03;;;;;;;34.88;38.17;94483.78;5116073;28;20715;-44
2023/07/21 09:50:38;;;;;;;12.90;4.90;;;;;;;34.93;38.33;94481.06;5116416;28;20198;-44
2023/07/21 09:53:05;;;;;;;12.63;4.93;;;;;;;34.90;38.24;94471.00;5116431;28;20197;-45
2023/07/21 09:55:40;;;;;;;9.40;4.53;;;;;;;34.86;38.41;94474.56;5116173;28;20181;-44
2023/07/21 09:58:10;;;;;;;8.20;4.78;;;;;;;34.77;38.38;94458.50;5116345;28;20193;-44
2023/07/21 10:00:41;;;;;;;6.30;4.25;;;;;;;34.74;38.59;94471.59;5116198;28;20228;-44
2023/07/21 10:03:08;;;;;;;9.85;5.00;;;;;;;34.59;38.77;94454.09;5116230;28;20186;-44
2023/07/21 10:05:38;;;;;;;10.60;4.85;;;;;;;34.69;39.21;94470.59;5115949;28;20231;-45
2023/07/21 10:08:09;;;;;;;10.35;5.22;;;;;;;34.77;39.12;94479.78;5116226;28;20232;-43
2023/07/21 10:10:37;;;;;;;9.40;4.57;;;;;;;34.87;38.90;94478.78;5097411;28;20228;-44
2023/07/21 10:13:07;;;;;;;10.88;4.35;;;;;;;34.85;38.43;94460.47;5113055;28;20197;-44
2023/07/21 10:15:35;;;;;;;12.00;4.88;;;;;;;34.89;38.66;94474.75;5112739;28;20271;-45
2023/07/21 10:18:06;;;;;;;10.15;5.25;;;;;;;34.86;38.85;94470.03;5113186;28;20281;-44
2023/07/21 10:20:41;;;;;;;6.38;4.85;;;;;;;34.73;38.79;94472.69;5112850;28;20185;-46
2023/07/21 10:23:09;;;;;;;10.75;4.53;;;;;;;34.75;38.78;94465.19;5112609;28;20596;-44
2023/07/21 10:25:47;;;;;;;10.75;4.57;;;;;;;34.70;38.92;94472.19;5112639;28;20177;-44
2023/07/21 10:28:14;;;;;;;8.52;5.25;;;;;;;34.70;38.73;94463.41;5112993;28;20268;-45
2023/07/21 10:30:41;;;;;;;8.63;4.75;;;;;;;34.48;39.11;94461.44;5112417;28;20236;-44
2023/07/21 10:33:14;;;;;;;10.25;5.32;;;;;;;34.54;39.07;94459.47;5112700;28;20231;-44
2023/07/21 10:35:41;;;;;;;12.48;5.28;;;;;;;34.45;39.55;94459.34;5112191;28;20184;-44
2023/07/21 10:38:26;;;;;;;7.72;4.72;;;;;;;34.40;39.63;94452.25;5112291;28;20221;-47
2023/07/21 10:40:53;;;;;;;9.43;5.07;;;;;;;34.31;39.90;94448.69;5112357;28;20185;-43
2023/07/21 10:43:20;;;;;;;7.43;4.72;;;;;;;34.38;39.53;94450.97;5112309;28;20656;-43
2023/07/21 10:45:53;;;;;;;10.27;5.50;;;;;;;34.43;39.09;94456.19;5112845;28;20189;-44
2023/07/21 10:48:25;;;;;;;12.02;5.00;;;;;;;34.37;38.74;94447.53;5112736;28;20210;-43
2023/07/21 10:50:56;;;;;;;9.90;4.97;;;;;;;34.39;39.35;94452.56;5112337;28;20182;-44
2023/07/21 10:53:23;;;;;;;8.43;4.65;;;;;;;34.36;38.89;94451.25;5112369;28;20948;-44
2023/07/21 10:55:52;;;;;;;8.18;4.80;;;;;;;34.28;39.54;94449.28;5112308;28;20246;-45
2023/07/21 10:58:20;;;;;;;10.23;5.70;;;;;;;34.18;39.87;94450.25;5112358;28;20193;-46
2023/07/21 11:00:47;;;;;;;9.25;4.78;;;;;;;34.21;39.84;94440.94;5111784;28;20193;-44
2023/07/21 11:03:14;;;;;;;11.55;5.25;;;;;;;34.22;39.46;94441.72;5112407;28;20181;-46
2023/07/21 11:05:42;;;;;;;10.00;4.72;;;;;;;34.20;39.63;94432.19;5111557;28;20280;-43
2023/07/21 11:08:13;;;;;;;11.35;5.65;;;;;;;34.16;39.39;94427.75;5111802;28;20197;-43
2023/07/21 11:10:40;;;;;;;7.07;4.93;;;;;;;34.27;39.48;94433.66;5111339;28;20207;-45
2023/07/21 11:13:07;;;;;;;11.90;5.38;;;;;;;34.38;39.16;94438.50;5111854;28;20203;-44
2023/07/21 11:15:35;;;;;;;9.93;4.60;;;;;;;34.44;37.70;94428.56;5111401;28;20177;-44
2023/07/21 11:18:02;;;;;;;7.63;4.72;;;;;;;34.40;38.22;94436.31;5111754;28;20381;-44
2023/07/21 11:20:30;;;;;;;12.40;5.15;;;;;;;34.39;38.59;94431.31;5111657;28;20181;-45
2023/07/21 11:22:58;;;;;;;12.18;5.00;;;;;;;34.49;38.77;94431.13;5111243;28;20355;-44
2023/07/21 11:25:25;;;;;;;9.80;5.13;;;;;;;34.62;37.27;94435.66;5111187;28;20203;-44
2023/07/21 11:27:53;;;;;;;8.38;4.57;;;;;;;34.73;37.18;94433.63;5111724;28;20202;-45
2023/07/21 11:30:20;;;;;;;9.30;5.15;;;;;;;34.88;37.14;94427.19;5111448;28;20231;-43
2023/07/21 11:32:47;;;;;;;9.82;5.47;;;;;;;34.92;37.15;94414.88;5111534;28;20189;-44
2023/07/21 11:35:14;;;;;;;10.25;5.50;;;;;;;34.98;37.46;94428.91;5110970;28;20571;-43